sensor_id;sensor_type;location;lat;lon;timestamp;P1;durP1;ratioP1;P2;durP2;ratioP2
47161;SDS011;32921;53.256;8.198;2023-08-20T00:01:22;15.57;;;14.63;;
47161;SDS011;32921;53.256;8.198;2023-08-20T00:03:50;16.30;;;15.30;;
47161;SDS011;32921;53.256;8.198;2023-08-20T00:06:17;16.08;;;15.07;;
47161;SDS011;32921;53.256;8.198;2023-08-20T00:08:43;16.58;;;15.38;;
47161;SDS011;32921;53.256;8.198;2023-08-20T00:11:09;16.35;;;15.35;;
47161;SDS011;32921;53.256;8.198;2023-08-20T00:13:37;16.30;;;15.30;;
47161;SDS011;32921;53.256;8.198;2023-08-20T00:16:02;14.27;;;13.38;;
47161;SDS011;32921;53.256;8.198;2023-08-20T00:18:28;17.85;;;16.75;;
47161;SDS011;32921;53.256;8.198;2023-08-20T00:20:54;15.80;;;14.82;;
47161;SDS011;32921;53.256;8.198;2023-08-20T00:23:21;17.27;;;16.17;;
47161;SDS011;32921;53.256;8.198;2023-08-20T00:25:47;17.05;;;15.95;;
47161;SDS011;32921;53.256;8.198;2023-08-20T00:28:12;16.08;;;15.10;;
47161;SDS011;32921;53.256;8.198;2023-08-20T00:30:38;17.35;;;16.25;;
47161;SDS011;32921;53.256;8.198;2023-08-20T00:33:04;17.55;;;16.45;;
47161;SDS011;32921;53.256;8.198;2023-08-20T00:35:30;18.27;;;17.08;;
47161;SDS011;32921;53.256;8.198;2023-08-20T00:37:56;17.00;;;16.00;;
47161;SDS011;32921;53.256;8.198;2023-08-20T00:40:21;16.92;;;15.82;;
47161;SDS011;32921;53.256;8.198;2023-08-20T00:42:47;17.58;;;16.48;;
47161;SDS011;32921;53.256;8.198;2023-08-20T00:45:12;16.67;;;15.68;;
47161;SDS011;32921;53.256;8.198;2023-08-20T00:47:38;16.52;;;15.52;;
47161;SDS011;32921;53.256;8.198;2023-08-20T00:50:04;16.08;;;15.07;;
47161;SDS011;32921;53.256;8.198;2023-08-20T00:52:34;15.80;;;14.80;;
47161;SDS011;32921;53.256;8.198;2023-08-20T00:55:00;16.15;;;15.15;;
47161;SDS011;32921;53.256;8.198;2023-08-20T00:57:32;15.32;;;14.32;;
47161;SDS011;32921;53.256;8.198;2023-08-20T00:59:58;16.65;;;15.55;;
47161;SDS011;32921;53.256;8.198;2023-08-20T01:02:24;18.17;;;16.92;;
47161;SDS011;32921;53.256;8.198;2023-08-20T01:04:50;16.48;;;15.48;;
47161;SDS011;32921;53.256;8.198;2023-08-20T01:07:30;17.77;;;16.13;;
47161;SDS011;32921;53.256;8.198;2023-08-20T01:12:40;14.00;;;13.15;;
47161;SDS011;32921;53.256;8.198;2023-08-20T01:15:06;16.05;;;15.05;;
47161;SDS011;32921;53.256;8.198;2023-08-20T01:17:38;15.65;;;14.70;;
47161;SDS011;32921;53.256;8.198;2023-08-20T01:20:05;15.40;;;14.48;;
47161;SDS011;32921;53.256;8.198;2023-08-20T01:26:00;14.32;;;13.43;;
47161;SDS011;32921;53.256;8.198;2023-08-20T01:28:25;14.63;;;13.73;;
47161;SDS011;32921;53.256;8.198;2023-08-20T01:30:58;14.85;;;13.95;;
47161;SDS011;32921;53.256;8.198;2023-08-20T01:33:25;14.85;;;13.93;;
47161;SDS011;32921;53.256;8.198;2023-08-20T01:35:52;14.77;;;13.88;;
47161;SDS011;32921;53.256;8.198;2023-08-20T01:38:18;14.27;;;13.40;;
47161;SDS011;32921;53.256;8.198;2023-08-20T01:40:44;16.02;;;15.02;;
47161;SDS011;32921;53.256;8.198;2023-08-20T01:43:10;15.45;;;14.52;;
47161;SDS011;32921;53.256;8.198;2023-08-20T01:45:35;14.20;;;13.30;;
47161;SDS011;32921;53.256;8.198;2023-08-20T01:48:01;14.82;;;13.93;;
47161;SDS011;32921;53.256;8.198;2023-08-20T01:50:28;15.50;;;14.50;;
47161;SDS011;32921;53.256;8.198;2023-08-20T01:52:54;13.77;;;12.88;;
47161;SDS011;32921;53.256;8.198;2023-08-20T01:55:20;15.00;;;14.10;;
47161;SDS011;32921;53.256;8.198;2023-08-20T01:57:45;14.98;;;14.07;;
47161;SDS011;32921;53.256;8.198;2023-08-20T02:00:11;14.20;;;13.30;;
47161;SDS011;32921;53.256;8.198;2023-08-20T02:02:37;15.20;;;14.30;;
47161;SDS011;32921;53.256;8.198;2023-08-20T02:05:03;14.55;;;13.55;;
47161;SDS011;32921;53.256;8.198;2023-08-20T02:07:28;15.32;;;14.38;;
47161;SDS011;32921;53.256;8.198;2023-08-20T02:09:54;14.75;;;13.75;;
47161;SDS011;32921;53.256;8.198;2023-08-20T02:12:19;14.77;;;13.88;;
47161;SDS011;32921;53.256;8.198;2023-08-20T02:14:45;15.90;;;13.95;;
47161;SDS011;32921;53.256;8.198;2023-08-20T02:17:11;14.05;;;13.18;;
47161;SDS011;32921;53.256;8.198;2023-08-20T02:19:37;14.18;;;13.27;;
47161;SDS011;32921;53.256;8.198;2023-08-20T02:22:03;14.35;;;13.35;;
47161;SDS011;32921;53.256;8.198;2023-08-20T02:24:29;14.18;;;13.27;;
47161;SDS011;32921;53.256;8.198;2023-08-20T02:26:55;14.07;;;13.18;;
47161;SDS011;32921;53.256;8.198;2023-08-20T02:29:20;14.10;;;13.25;;
47161;SDS011;32921;53.256;8.198;2023-08-20T02:31:46;13.30;;;12.50;;
47161;SDS011;32921;53.256;8.198;2023-08-20T02:34:11;13.90;;;13.05;;
47161;SDS011;32921;53.256;8.198;2023-08-20T02:36:37;14.60;;;13.70;;
47161;SDS011;32921;53.256;8.198;2023-08-20T02:39:02;13.75;;;12.93;;
47161;SDS011;32921;53.256;8.198;2023-08-20T02:41:32;13.90;;;13.00;;
47161;SDS011;32921;53.256;8.198;2023-08-20T02:44:01;14.32;;;13.38;;
47161;SDS011;32921;53.256;8.198;2023-08-20T02:46:30;12.90;;;12.10;;
47161;SDS011;32921;53.256;8.198;2023-08-20T02:48:55;13.57;;;12.77;;
47161;SDS011;32921;53.256;8.198;2023-08-20T02:51:21;12.95;;;12.15;;
47161;SDS011;32921;53.256;8.198;2023-08-20T02:53:47;13.48;;;12.57;;
47161;SDS011;32921;53.256;8.198;2023-08-20T02:56:13;13.93;;;13.02;;
47161;SDS011;32921;53.256;8.198;2023-08-20T02:58:38;13.70;;;12.88;;
47161;SDS011;32921;53.256;8.198;2023-08-20T03:01:04;13.80;;;12.95;;
47161;SDS011;32921;53.256;8.198;2023-08-20T03:03:30;12.52;;;11.73;;
47161;SDS011;32921;53.256;8.198;2023-08-20T03:05:56;13.30;;;12.50;;
47161;SDS011;32921;53.256;8.198;2023-08-20T03:08:21;13.38;;;12.57;;
47161;SDS011;32921;53.256;8.198;2023-08-20T03:10:47;13.05;;;12.25;;
47161;SDS011;32921;53.256;8.198;2023-08-20T03:13:13;12.77;;;11.98;;
47161;SDS011;32921;53.256;8.198;2023-08-20T03:15:39;12.63;;;11.82;;
47161;SDS011;32921;53.256;8.198;2023-08-20T03:18:04;13.85;;;12.98;;
47161;SDS011;32921;53.256;8.198;2023-08-20T03:20:30;13.02;;;12.23;;
47161;SDS011;32921;53.256;8.198;2023-08-20T03:22:56;13.30;;;12.50;;
47161;SDS011;32921;53.256;8.198;2023-08-20T03:25:22;12.57;;;11.77;;
47161;SDS011;32921;53.256;8.198;2023-08-20T03:27:47;13.32;;;12.52;;
47161;SDS011;32921;53.256;8.198;2023-08-20T03:30:13;13.70;;;12.82;;
47161;SDS011;32921;53.256;8.198;2023-08-20T03:32:39;13.50;;;12.70;;
47161;SDS011;32921;53.256;8.198;2023-08-20T03:35:04;13.30;;;12.40;;
47161;SDS011;32921;53.256;8.198;2023-08-20T03:37:30;12.48;;;11.68;;
47161;SDS011;32921;53.256;8.198;2023-08-20T03:39:56;13.45;;;12.65;;
47161;SDS011;32921;53.256;8.198;2023-08-20T03:42:21;14.10;;;13.20;;
47161;SDS011;32921;53.256;8.198;2023-08-20T03:44:47;13.07;;;12.27;;
47161;SDS011;32921;53.256;8.198;2023-08-20T03:47:12;12.82;;;12.02;;
47161;SDS011;32921;53.256;8.198;2023-08-20T03:49:39;12.32;;;11.52;;
47161;SDS011;32921;53.256;8.198;2023-08-20T03:52:04;12.60;;;11.80;;
47161;SDS011;32921;53.256;8.198;2023-08-20T03:54:32;12.30;;;11.50;;
47161;SDS011;32921;53.256;8.198;2023-08-20T03:56:58;13.18;;;12.38;;
47161;SDS011;32921;53.256;8.198;2023-08-20T03:59:24;12.52;;;11.73;;
47161;SDS011;32921;53.256;8.198;2023-08-20T04:01:49;13.63;;;12.77;;
47161;SDS011;32921;53.256;8.198;2023-08-20T04:04:15;13.10;;;12.30;;
47161;SDS011;32921;53.256;8.198;2023-08-20T04:06:40;13.63;;;12.73;;
47161;SDS011;32921;53.256;8.198;2023-08-20T04:09:06;13.00;;;12.20;;
47161;SDS011;32921;53.256;8.198;2023-08-20T04:11:34;13.13;;;12.32;;
47161;SDS011;32921;53.256;8.198;2023-08-20T04:13:59;14.15;;;12.93;;
47161;SDS011;32921;53.256;8.198;2023-08-20T04:16:25;14.48;;;13.38;;
47161;SDS011;32921;53.256;8.198;2023-08-20T04:18:50;12.95;;;12.15;;
47161;SDS011;32921;53.256;8.198;2023-08-20T04:21:16;13.85;;;12.95;;
47161;SDS011;32921;53.256;8.198;2023-08-20T04:23:42;14.48;;;13.57;;
47161;SDS011;32921;53.256;8.198;2023-08-20T04:26:07;14.70;;;13.75;;
47161;SDS011;32921;53.256;8.198;2023-08-20T04:28:33;14.07;;;13.20;;
47161;SDS011;32921;53.256;8.198;2023-08-20T04:30:58;12.38;;;11.60;;
47161;SDS011;32921;53.256;8.198;2023-08-20T04:33:25;13.13;;;12.32;;
47161;SDS011;32921;53.256;8.198;2023-08-20T04:35:51;13.48;;;12.60;;
47161;SDS011;32921;53.256;8.198;2023-08-20T04:38:17;14.48;;;13.55;;
47161;SDS011;32921;53.256;8.198;2023-08-20T04:40:44;14.88;;;13.68;;
47161;SDS011;32921;53.256;8.198;2023-08-20T04:43:11;24.85;;;12.95;;
47161;SDS011;32921;53.256;8.198;2023-08-20T04:45:37;15.20;;;14.10;;
47161;SDS011;32921;53.256;8.198;2023-08-20T04:48:02;13.32;;;12.48;;
47161;SDS011;32921;53.256;8.198;2023-08-20T04:50:28;14.32;;;13.43;;
47161;SDS011;32921;53.256;8.198;2023-08-20T04:52:53;13.93;;;13.02;;
47161;SDS011;32921;53.256;8.198;2023-08-20T04:55:19;14.40;;;13.50;;
47161;SDS011;32921;53.256;8.198;2023-08-20T04:57:45;14.82;;;13.82;;
47161;SDS011;32921;53.256;8.198;2023-08-20T05:00:11;16.58;;;15.20;;
47161;SDS011;32921;53.256;8.198;2023-08-20T05:02:37;13.90;;;13.00;;
47161;SDS011;32921;53.256;8.198;2023-08-20T05:05:02;14.27;;;13.38;;
47161;SDS011;32921;53.256;8.198;2023-08-20T05:07:28;14.23;;;13.35;;
47161;SDS011;32921;53.256;8.198;2023-08-20T05:09:54;14.52;;;13.63;;
47161;SDS011;32921;53.256;8.198;2023-08-20T05:12:20;14.63;;;13.68;;
47161;SDS011;32921;53.256;8.198;2023-08-20T05:14:45;15.32;;;14.32;;
47161;SDS011;32921;53.256;8.198;2023-08-20T05:17:11;13.90;;;13.00;;
47161;SDS011;32921;53.256;8.198;2023-08-20T05:19:37;14.05;;;13.18;;
47161;SDS011;32921;53.256;8.198;2023-08-20T05:22:02;14.77;;;13.88;;
47161;SDS011;32921;53.256;8.198;2023-08-20T05:24:28;16.83;;;15.80;;
47161;SDS011;32921;53.256;8.198;2023-08-20T05:29:48;15.10;;;14.00;;
47161;SDS011;32921;53.256;8.198;2023-08-20T05:32:14;16.30;;;15.20;;
47161;SDS011;32921;53.256;8.198;2023-08-20T05:34:41;16.55;;;15.55;;
47161;SDS011;32921;53.256;8.198;2023-08-20T05:37:06;16.85;;;15.85;;
47161;SDS011;32921;53.256;8.198;2023-08-20T05:39:36;17.20;;;16.15;;
47161;SDS011;32921;53.256;8.198;2023-08-20T05:42:03;17.65;;;16.55;;
47161;SDS011;32921;53.256;8.198;2023-08-20T05:44:29;17.50;;;16.45;;
47161;SDS011;32921;53.256;8.198;2023-08-20T05:46:54;16.67;;;15.68;;
47161;SDS011;32921;53.256;8.198;2023-08-20T05:49:20;16.75;;;15.75;;
47161;SDS011;32921;53.256;8.198;2023-08-20T05:51:45;18.75;;;17.60;;
47161;SDS011;32921;53.256;8.198;2023-08-20T05:54:11;19.00;;;17.90;;
47161;SDS011;32921;53.256;8.198;2023-08-20T05:56:37;17.92;;;16.83;;
47161;SDS011;32921;53.256;8.198;2023-08-20T05:59:03;18.48;;;17.38;;
47161;SDS011;32921;53.256;8.198;2023-08-20T06:01:28;20.17;;;18.92;;
47161;SDS011;32921;53.256;8.198;2023-08-20T06:03:54;19.33;;;18.17;;
47161;SDS011;32921;53.256;8.198;2023-08-20T06:06:20;20.70;;;19.45;;
47161;SDS011;32921;53.256;8.198;2023-08-20T06:08:46;21.00;;;19.67;;
47161;SDS011;32921;53.256;8.198;2023-08-20T06:11:12;20.08;;;18.70;;
47161;SDS011;32921;53.256;8.198;2023-08-20T06:13:38;19.52;;;18.35;;
47161;SDS011;32921;53.256;8.198;2023-08-20T06:16:03;20.98;;;19.67;;
47161;SDS011;32921;53.256;8.198;2023-08-20T06:18:29;21.48;;;19.88;;
47161;SDS011;32921;53.256;8.198;2023-08-20T06:20:55;22.17;;;20.83;;
47161;SDS011;32921;53.256;8.198;2023-08-20T06:23:20;20.85;;;19.55;;
47161;SDS011;32921;53.256;8.198;2023-08-20T06:25:46;24.00;;;22.50;;
47161;SDS011;32921;53.256;8.198;2023-08-20T06:28:11;22.83;;;21.23;;
47161;SDS011;32921;53.256;8.198;2023-08-20T06:30:37;22.33;;;21.00;;
47161;SDS011;32921;53.256;8.198;2023-08-20T06:33:02;22.30;;;21.00;;
47161;SDS011;32921;53.256;8.198;2023-08-20T06:35:28;22.58;;;21.23;;
47161;SDS011;32921;53.256;8.198;2023-08-20T06:37:54;23.08;;;21.70;;
47161;SDS011;32921;53.256;8.198;2023-08-20T06:40:19;24.38;;;22.88;;
47161;SDS011;32921;53.256;8.198;2023-08-20T06:42:46;22.10;;;20.80;;
47161;SDS011;32921;53.256;8.198;2023-08-20T06:45:11;25.13;;;23.67;;
47161;SDS011;32921;53.256;8.198;2023-08-20T06:47:37;24.30;;;22.88;;
47161;SDS011;32921;53.256;8.198;2023-08-20T06:50:02;25.67;;;24.15;;
47161;SDS011;32921;53.256;8.198;2023-08-20T06:52:29;25.67;;;24.15;;
47161;SDS011;32921;53.256;8.198;2023-08-20T06:54:54;24.08;;;22.65;;
47161;SDS011;32921;53.256;8.198;2023-08-20T06:57:20;27.88;;;26.25;;
47161;SDS011;32921;53.256;8.198;2023-08-20T06:59:45;25.65;;;24.15;;
47161;SDS011;32921;53.256;8.198;2023-08-20T07:02:11;26.70;;;25.15;;
47161;SDS011;32921;53.256;8.198;2023-08-20T07:04:36;29.38;;;27.50;;
47161;SDS011;32921;53.256;8.198;2023-08-20T07:07:02;30.73;;;28.48;;
47161;SDS011;32921;53.256;8.198;2023-08-20T07:09:31;31.77;;;29.83;;
47161;SDS011;32921;53.256;8.198;2023-08-20T07:11:57;29.50;;;27.63;;
47161;SDS011;32921;53.256;8.198;2023-08-20T07:14:22;31.23;;;29.30;;
47161;SDS011;32921;53.256;8.198;2023-08-20T07:16:48;30.83;;;28.83;;
47161;SDS011;32921;53.256;8.198;2023-08-20T07:19:13;33.92;;;31.95;;
47161;SDS011;32921;53.256;8.198;2023-08-20T07:21:39;30.40;;;28.65;;
47161;SDS011;32921;53.256;8.198;2023-08-20T07:24:04;32.10;;;30.25;;
47161;SDS011;32921;53.256;8.198;2023-08-20T07:26:30;33.83;;;31.83;;
47161;SDS011;32921;53.256;8.198;2023-08-20T07:28:56;33.50;;;31.50;;
47161;SDS011;32921;53.256;8.198;2023-08-20T07:31:22;33.03;;;31.10;;
47161;SDS011;32921;53.256;8.198;2023-08-20T07:33:49;30.35;;;28.55;;
47161;SDS011;32921;53.256;8.198;2023-08-20T07:36:15;30.52;;;28.73;;
47161;SDS011;32921;53.256;8.198;2023-08-20T07:38:42;30.70;;;28.90;;
47161;SDS011;32921;53.256;8.198;2023-08-20T07:41:08;34.33;;;32.33;;
47161;SDS011;32921;53.256;8.198;2023-08-20T07:43:36;31.02;;;29.20;;
47161;SDS011;32921;53.256;8.198;2023-08-20T07:46:03;30.33;;;28.52;;
47161;SDS011;32921;53.256;8.198;2023-08-20T07:48:29;28.63;;;26.92;;
47161;SDS011;32921;53.256;8.198;2023-08-20T07:50:54;29.20;;;27.48;;
47161;SDS011;32921;53.256;8.198;2023-08-20T07:53:20;30.88;;;28.88;;
47161;SDS011;32921;53.256;8.198;2023-08-20T07:55:46;30.88;;;29.02;;
47161;SDS011;32921;53.256;8.198;2023-08-20T07:58:11;32.38;;;30.40;;
47161;SDS011;32921;53.256;8.198;2023-08-20T08:00:37;32.17;;;30.27;;
47161;SDS011;32921;53.256;8.198;2023-08-20T08:03:02;32.17;;;30.27;;
47161;SDS011;32921;53.256;8.198;2023-08-20T08:05:28;28.08;;;26.42;;
47161;SDS011;32921;53.256;8.198;2023-08-20T08:07:54;30.25;;;28.23;;
47161;SDS011;32921;53.256;8.198;2023-08-20T08:10:19;30.30;;;28.52;;
47161;SDS011;32921;53.256;8.198;2023-08-20T08:12:45;32.30;;;30.40;;
47161;SDS011;32921;53.256;8.198;2023-08-20T08:15:11;31.83;;;29.92;;
47161;SDS011;32921;53.256;8.198;2023-08-20T08:17:37;30.52;;;28.70;;
47161;SDS011;32921;53.256;8.198;2023-08-20T08:20:02;31.83;;;29.85;;
47161;SDS011;32921;53.256;8.198;2023-08-20T08:22:28;29.42;;;27.67;;
47161;SDS011;32921;53.256;8.198;2023-08-20T08:24:55;30.92;;;29.08;;
47161;SDS011;32921;53.256;8.198;2023-08-20T08:27:20;31.15;;;29.30;;
47161;SDS011;32921;53.256;8.198;2023-08-20T08:29:46;30.02;;;28.23;;
47161;SDS011;32921;53.256;8.198;2023-08-20T08:32:11;32.10;;;30.17;;
47161;SDS011;32921;53.256;8.198;2023-08-20T08:34:37;29.70;;;27.92;;
47161;SDS011;32921;53.256;8.198;2023-08-20T08:37:02;32.67;;;30.73;;
47161;SDS011;32921;53.256;8.198;2023-08-20T08:39:28;29.15;;;27.40;;
47161;SDS011;32921;53.256;8.198;2023-08-20T08:41:54;29.65;;;27.85;;
47161;SDS011;32921;53.256;8.198;2023-08-20T08:44:27;33.03;;;31.08;;
47161;SDS011;32921;53.256;8.198;2023-08-20T08:46:53;32.00;;;30.10;;
47161;SDS011;32921;53.256;8.198;2023-08-20T08:49:19;32.90;;;30.92;;
47161;SDS011;32921;53.256;8.198;2023-08-20T08:51:44;35.05;;;32.95;;
47161;SDS011;32921;53.256;8.198;2023-08-20T08:54:11;31.52;;;29.48;;
47161;SDS011;32921;53.256;8.198;2023-08-20T08:56:38;31.10;;;29.27;;
47161;SDS011;32921;53.256;8.198;2023-08-20T08:59:04;31.73;;;29.83;;
47161;SDS011;32921;53.256;8.198;2023-08-20T09:01:30;29.02;;;27.33;;
47161;SDS011;32921;53.256;8.198;2023-08-20T09:03:56;30.27;;;28.48;;
47161;SDS011;32921;53.256;8.198;2023-08-20T09:06:22;28.42;;;26.73;;
47161;SDS011;32921;53.256;8.198;2023-08-20T09:08:47;31.38;;;29.45;;
47161;SDS011;32921;53.256;8.198;2023-08-20T09:11:13;32.65;;;30.67;;
47161;SDS011;32921;53.256;8.198;2023-08-20T09:13:39;29.63;;;27.83;;
47161;SDS011;32921;53.256;8.198;2023-08-20T09:16:06;29.92;;;28.02;;
47161;SDS011;32921;53.256;8.198;2023-08-20T09:18:37;30.15;;;28.35;;
47161;SDS011;32921;53.256;8.198;2023-08-20T09:21:07;28.98;;;27.25;;
47161;SDS011;32921;53.256;8.198;2023-08-20T09:23:33;30.17;;;28.38;;
47161;SDS011;32921;53.256;8.198;2023-08-20T09:26:01;32.45;;;30.50;;
47161;SDS011;32921;53.256;8.198;2023-08-20T09:28:27;27.50;;;25.90;;
47161;SDS011;32921;53.256;8.198;2023-08-20T09:30:57;29.20;;;27.48;;
47161;SDS011;32921;53.256;8.198;2023-08-20T09:33:26;27.15;;;25.52;;
47161;SDS011;32921;53.256;8.198;2023-08-20T09:35:52;28.23;;;26.52;;
47161;SDS011;32921;53.256;8.198;2023-08-20T09:38:19;31.27;;;29.38;;
47161;SDS011;32921;53.256;8.198;2023-08-20T09:40:49;27.48;;;25.77;;
47161;SDS011;32921;53.256;8.198;2023-08-20T09:43:21;28.50;;;26.75;;
47161;SDS011;32921;53.256;8.198;2023-08-20T09:45:53;26.13;;;24.52;;
47161;SDS011;32921;53.256;8.198;2023-08-20T09:48:20;26.35;;;24.75;;
47161;SDS011;32921;53.256;8.198;2023-08-20T09:50:47;27.30;;;25.67;;
47161;SDS011;32921;53.256;8.198;2023-08-20T09:56:03;31.73;;;29.80;;
47161;SDS011;32921;53.256;8.198;2023-08-20T09:58:34;30.30;;;28.50;;
47161;SDS011;32921;53.256;8.198;2023-08-20T10:01:02;29.42;;;27.63;;
47161;SDS011;32921;53.256;8.198;2023-08-20T10:03:28;32.67;;;30.67;;
47161;SDS011;32921;53.256;8.198;2023-08-20T10:05:55;31.75;;;29.85;;
47161;SDS011;32921;53.256;8.198;2023-08-20T10:08:23;33.60;;;31.60;;
47161;SDS011;32921;53.256;8.198;2023-08-20T10:10:49;28.83;;;27.13;;
47161;SDS011;32921;53.256;8.198;2023-08-20T10:13:15;34.63;;;32.53;;
47161;SDS011;32921;53.256;8.198;2023-08-20T10:15:40;32.35;;;30.35;;
47161;SDS011;32921;53.256;8.198;2023-08-20T10:18:07;31.70;;;29.75;;
47161;SDS011;32921;53.256;8.198;2023-08-20T10:20:33;29.33;;;27.55;;
47161;SDS011;32921;53.256;8.198;2023-08-20T10:23:00;30.30;;;28.40;;
47161;SDS011;32921;53.256;8.198;2023-08-20T10:25:27;33.72;;;31.70;;
47161;SDS011;32921;53.256;8.198;2023-08-20T10:28:11;32.88;;;30.83;;
47161;SDS011;32921;53.256;8.198;2023-08-20T10:31:03;33.28;;;31.27;;
47161;SDS011;32921;53.256;8.198;2023-08-20T10:33:37;30.65;;;28.80;;
47161;SDS011;32921;53.256;8.198;2023-08-20T10:36:16;34.92;;;32.80;;
47161;SDS011;32921;53.256;8.198;2023-08-20T10:38:44;28.88;;;27.10;;
47161;SDS011;32921;53.256;8.198;2023-08-20T10:41:10;32.20;;;30.23;;
47161;SDS011;32921;53.256;8.198;2023-08-20T10:43:37;32.42;;;30.40;;
47161;SDS011;32921;53.256;8.198;2023-08-20T10:48:41;40.20;;;37.72;;
47161;SDS011;32921;53.256;8.198;2023-08-20T11:01:56;33.80;;;31.73;;
47161;SDS011;32921;53.256;8.198;2023-08-20T11:04:30;32.35;;;30.42;;
47161;SDS011;32921;53.256;8.198;2023-08-20T11:06:59;32.92;;;30.90;;
47161;SDS011;32921;53.256;8.198;2023-08-20T11:09:25;31.55;;;29.58;;
47161;SDS011;32921;53.256;8.198;2023-08-20T11:11:52;32.38;;;30.38;;
47161;SDS011;32921;53.256;8.198;2023-08-20T11:14:19;33.38;;;31.35;;
47161;SDS011;32921;53.256;8.198;2023-08-20T11:16:45;38.35;;;36.00;;
47161;SDS011;32921;53.256;8.198;2023-08-20T11:19:12;35.83;;;33.65;;
47161;SDS011;32921;53.256;8.198;2023-08-20T11:21:39;43.33;;;40.65;;
47161;SDS011;32921;53.256;8.198;2023-08-20T11:24:08;44.83;;;41.92;;
47161;SDS011;32921;53.256;8.198;2023-08-20T11:26:34;43.53;;;40.85;;
47161;SDS011;32921;53.256;8.198;2023-08-20T11:29:07;43.15;;;40.55;;
47161;SDS011;32921;53.256;8.198;2023-08-20T11:31:34;41.40;;;38.90;;
47161;SDS011;32921;53.256;8.198;2023-08-20T11:34:01;43.92;;;41.25;;
47161;SDS011;32921;53.256;8.198;2023-08-20T11:36:28;39.13;;;36.72;;
47161;SDS011;32921;53.256;8.198;2023-08-20T11:38:53;36.80;;;34.55;;
47161;SDS011;32921;53.256;8.198;2023-08-20T11:41:20;34.08;;;32.00;;
47161;SDS011;32921;53.256;8.198;2023-08-20T11:43:46;32.53;;;30.52;;
47161;SDS011;32921;53.256;8.198;2023-08-20T11:46:13;34.75;;;32.60;;
47161;SDS011;32921;53.256;8.198;2023-08-20T11:51:37;40.30;;;37.83;;
47161;SDS011;32921;53.256;8.198;2023-08-20T11:54:13;37.55;;;35.25;;
47161;SDS011;32921;53.256;8.198;2023-08-20T11:56:49;34.90;;;32.78;;
47161;SDS011;32921;53.256;8.198;2023-08-20T11:59:16;36.92;;;34.70;;
47161;SDS011;32921;53.256;8.198;2023-08-20T12:01:46;42.58;;;40.00;;
47161;SDS011;32921;53.256;8.198;2023-08-20T12:04:23;37.35;;;35.05;;
47161;SDS011;32921;53.256;8.198;2023-08-20T12:07:01;34.50;;;32.42;;
47161;SDS011;32921;53.256;8.198;2023-08-20T12:09:31;36.13;;;33.97;;
47161;SDS011;32921;53.256;8.198;2023-08-20T12:11:57;40.22;;;37.72;;
47161;SDS011;32921;53.256;8.198;2023-08-20T12:14:24;35.75;;;33.58;;
47161;SDS011;32921;53.256;8.198;2023-08-20T12:16:49;33.53;;;31.50;;
47161;SDS011;32921;53.256;8.198;2023-08-20T12:19:16;33.42;;;31.42;;
47161;SDS011;32921;53.256;8.198;2023-08-20T12:21:41;39.83;;;37.42;;
47161;SDS011;32921;53.256;8.198;2023-08-20T12:24:08;40.90;;;38.42;;
47161;SDS011;32921;53.256;8.198;2023-08-20T12:26:35;38.33;;;35.97;;
47161;SDS011;32921;53.256;8.198;2023-08-20T12:29:01;37.28;;;35.00;;
47161;SDS011;32921;53.256;8.198;2023-08-20T12:31:27;36.50;;;34.28;;
47161;SDS011;32921;53.256;8.198;2023-08-20T12:33:52;46.97;;;44.05;;
47161;SDS011;32921;53.256;8.198;2023-08-20T12:36:18;38.38;;;36.05;;
47161;SDS011;32921;53.256;8.198;2023-08-20T12:38:43;40.38;;;37.90;;
47161;SDS011;32921;53.256;8.198;2023-08-20T12:41:09;38.40;;;36.10;;
47161;SDS011;32921;53.256;8.198;2023-08-20T12:43:35;51.03;;;47.88;;
47161;SDS011;32921;53.256;8.198;2023-08-20T12:46:01;50.70;;;47.47;;
47161;SDS011;32921;53.256;8.198;2023-08-20T12:48:28;59.10;;;55.33;;
47161;SDS011;32921;53.256;8.198;2023-08-20T12:50:55;55.90;;;52.50;;
47161;SDS011;32921;53.256;8.198;2023-08-20T12:53:21;53.08;;;49.92;;
47161;SDS011;32921;53.256;8.198;2023-08-20T12:55:47;45.80;;;43.08;;
47161;SDS011;32921;53.256;8.198;2023-08-20T12:58:12;57.50;;;53.90;;
47161;SDS011;32921;53.256;8.198;2023-08-20T13:00:38;50.10;;;47.08;;
47161;SDS011;32921;53.256;8.198;2023-08-20T13:03:05;50.58;;;47.55;;
47161;SDS011;32921;53.256;8.198;2023-08-20T13:05:31;49.78;;;46.75;;
47161;SDS011;32921;53.256;8.198;2023-08-20T13:07:57;49.50;;;46.55;;
47161;SDS011;32921;53.256;8.198;2023-08-20T13:10:23;59.30;;;55.67;;
47161;SDS011;32921;53.256;8.198;2023-08-20T13:12:53;59.28;;;55.67;;
47161;SDS011;32921;53.256;8.198;2023-08-20T13:15:19;52.10;;;48.97;;
47161;SDS011;32921;53.256;8.198;2023-08-20T13:17:46;65.05;;;61.10;;
47161;SDS011;32921;53.256;8.198;2023-08-20T13:20:12;60.75;;;57.05;;
47161;SDS011;32921;53.256;8.198;2023-08-20T13:22:39;64.75;;;60.75;;
47161;SDS011;32921;53.256;8.198;2023-08-20T13:25:05;55.67;;;52.38;;
47161;SDS011;32921;53.256;8.198;2023-08-20T13:27:31;56.35;;;52.92;;
47161;SDS011;32921;53.256;8.198;2023-08-20T13:29:57;61.63;;;57.83;;
47161;SDS011;32921;53.256;8.198;2023-08-20T13:32:23;65.78;;;61.78;;
47161;SDS011;32921;53.256;8.198;2023-08-20T13:34:49;62.72;;;58.90;;
47161;SDS011;32921;53.256;8.198;2023-08-20T13:37:16;56.80;;;53.33;;
47161;SDS011;32921;53.256;8.198;2023-08-20T13:39:42;66.18;;;62.15;;
47161;SDS011;32921;53.256;8.198;2023-08-20T13:42:08;65.07;;;61.13;;
47161;SDS011;32921;53.256;8.198;2023-08-20T13:44:34;67.53;;;63.20;;
47161;SDS011;32921;53.256;8.198;2023-08-20T13:47:00;65.07;;;60.97;;
47161;SDS011;32921;53.256;8.198;2023-08-20T13:49:26;75.40;;;70.72;;
47161;SDS011;32921;53.256;8.198;2023-08-20T13:51:52;64.45;;;60.60;;
47161;SDS011;32921;53.256;8.198;2023-08-20T13:54:18;69.50;;;65.20;;
47161;SDS011;32921;53.256;8.198;2023-08-20T13:56:44;68.30;;;64.20;;
47161;SDS011;32921;53.256;8.198;2023-08-20T13:59:10;56.60;;;53.15;;
47161;SDS011;32921;53.256;8.198;2023-08-20T14:01:36;54.95;;;51.55;;
47161;SDS011;32921;53.256;8.198;2023-08-20T14:04:02;56.42;;;52.97;;
47161;SDS011;32921;53.256;8.198;2023-08-20T14:06:28;63.78;;;59.72;;
47161;SDS011;32921;53.256;8.198;2023-08-20T14:08:55;55.85;;;52.42;;
47161;SDS011;32921;53.256;8.198;2023-08-20T14:11:20;55.13;;;51.70;;
47161;SDS011;32921;53.256;8.198;2023-08-20T14:13:47;46.10;;;43.28;;
47161;SDS011;32921;53.256;8.198;2023-08-20T14:16:13;47.53;;;44.55;;
47161;SDS011;32921;53.256;8.198;2023-08-20T14:18:39;60.70;;;56.97;;
47161;SDS011;32921;53.256;8.198;2023-08-20T14:21:05;57.92;;;54.35;;
47161;SDS011;32921;53.256;8.198;2023-08-20T14:23:31;59.72;;;56.03;;
47161;SDS011;32921;53.256;8.198;2023-08-20T14:25:56;55.95;;;52.50;;
47161;SDS011;32921;53.256;8.198;2023-08-20T14:28:22;55.58;;;52.08;;
47161;SDS011;32921;53.256;8.198;2023-08-20T14:30:48;51.83;;;48.63;;
47161;SDS011;32921;53.256;8.198;2023-08-20T14:33:15;48.38;;;45.33;;
47161;SDS011;32921;53.256;8.198;2023-08-20T14:35:41;51.85;;;48.67;;
47161;SDS011;32921;53.256;8.198;2023-08-20T14:38:07;50.53;;;47.53;;
47161;SDS011;32921;53.256;8.198;2023-08-20T14:40:36;56.35;;;52.90;;
47161;SDS011;32921;53.256;8.198;2023-08-20T14:43:04;48.90;;;45.90;;
47161;SDS011;32921;53.256;8.198;2023-08-20T14:45:30;49.42;;;46.47;;